RJBB/KIX METAR and TAF weather

Enter ICAO airport designator
Station Type Date Time Source
RJBB METAR 2021/09/23 17:00 UTC NOAA

RJBB 231700Z AUTO 05011KT 9999 FEW031 24/19 Q1017 NOSIG


Station Type Date Time Source
RJBB Decoded METAR 2021/09/23 17:00 UTC NOAA

Kansai International Airport, Japan (RJBB) 34-25N 135-15E 8M
Sep 23, 2021 - 01:00 PM EDT / 2021.09.23 1700 UTC
Wind: from the NE (050 degrees) at 13 MPH (11 KT):0
Visibility: greater than 7 mile(s):0
Sky conditions: mostly clear
Temperature: 75 F (24 C)
Dew Point: 66 F (19 C)
Relative Humidity: 73%
Pressure (altimeter): 30.03 in. Hg (1017 hPa)
ob: RJBB 231700Z AUTO 05011KT 9999 FEW031 24/19 Q1017 NOSIG
cycle: 17

Station Type Date Time Source
RJBB TAF 2021/09/23 18:28 UTC NOAA

TAF RJBB 231705Z 2318/2500 06007KT 9999 FEW025
BECMG 2401/2403 28006KT
BECMG 2406/2409 04011KT

Example: see airport list